Time;durP1;ratioP1;P1;durP2;ratioP2;P2;SDS_P1;SDS_P2;PMS_P1;PMS_P2;Temp;Humidity;BMP_temperature;BMP_pressure;BME280_temperature;BME280_humidity;BME280_pressure;Samples;Min_cycle;Max_cycle;Signal;HPM_P1;HPM_P2
2022/07/07 00:01:47;;;;;;;3.28;2.42;;;19.10;62.30;;;;;;5052237;28;20029;-48
2022/07/07 00:04:13;;;;;;;2.85;1.60;;;19.10;62.40;;;;;;5052922;28;20085;-49
2022/07/07 00:06:39;;;;;;;5.78;2.13;;;19.00;63.10;;;;;;5053172;28;20017;-48
2022/07/07 00:09:05;;;;;;;4.47;2.13;;;18.90;63.30;;;;;;5053530;28;20029;-48
2022/07/07 00:11:31;;;;;;;3.25;1.80;;;18.80;63.90;;;;;;5053821;28;20025;-49
2022/07/07 00:13:57;;;;;;;6.88;2.15;;;18.80;63.90;;;;;;5053174;28;20053;-48
2022/07/07 00:16:23;;;;;;;2.63;1.88;;;18.80;63.80;;;;;;5052867;28;20049;-47
2022/07/07 00:18:49;;;;;;;4.50;1.70;;;18.80;64.10;;;;;;5053432;28;20056;-47
2022/07/07 00:21:16;;;;;;;5.88;2.20;;;18.80;63.60;;;;;;5051538;28;20429;-51
2022/07/07 00:23:42;;;;;;;2.30;1.30;;;18.80;63.60;;;;;;5053027;28;20025;-48
2022/07/07 00:26:08;;;;;;;7.88;2.20;;;18.90;63.50;;;;;;5051557;28;20021;-48
2022/07/07 00:28:34;;;;;;;5.00;1.80;;;18.90;63.40;;;;;;5052881;28;20500;-50
2022/07/07 00:31:00;;;;;;;2.45;1.95;;;19.00;63.40;;;;;;5051638;28;20092;-49
2022/07/07 00:33:25;;;;;;;3.03;1.70;;;18.90;63.70;;;;;;5052891;28;20040;-49
2022/07/07 00:35:51;;;;;;;4.03;1.55;;;18.80;64.00;;;;;;5053262;28;20033;-49
2022/07/07 00:38:17;;;;;;;2.05;1.70;;;18.90;63.90;;;;;;5051498;28;20079;-50
2022/07/07 00:40:48;;;;;;;3.67;2.08;;;18.90;63.90;;;;;;5052748;28;20013;-47
2022/07/07 00:43:13;;;;;;;3.45;1.85;;;18.90;64.10;;;;;;5052828;28;20079;-48
2022/07/07 00:45:39;;;;;;;2.35;1.83;;;18.80;64.40;;;;;;5052704;28;20033;-49
2022/07/07 00:48:06;;;;;;;5.05;1.80;;;18.80;64.60;;;;;;5052775;28;20120;-50
2022/07/07 00:50:32;;;;;;;8.18;1.67;;;18.80;64.80;;;;;;5053241;28;20025;-48
2022/07/07 00:52:57;;;;;;;2.90;1.65;;;18.80;65.00;;;;;;5055996;28;20070;-48
2022/07/07 00:55:23;;;;;;;2.78;1.80;;;18.80;65.50;;;;;;5056591;28;20104;-48
2022/07/07 00:57:49;;;;;;;1.73;1.50;;;18.70;65.90;;;;;;5056722;28;20025;-47
2022/07/07 01:00:15;;;;;;;3.83;1.83;;;18.70;66.30;;;;;;5056459;28;20062;-47
2022/07/07 01:02:44;;;;;;;2.58;1.67;;;18.70;66.40;;;;;;5056117;28;20081;-48
2022/07/07 01:05:10;;;;;;;2.50;1.60;;;18.70;66.70;;;;;;5055884;28;20048;-48
2022/07/07 01:07:37;;;;;;;5.40;1.70;;;18.70;67.20;;;;;;5056360;28;20104;-49
2022/07/07 01:10:05;;;;;;;8.32;2.20;;;18.50;67.80;;;;;;5056332;28;20056;-49
2022/07/07 01:12:35;;;;;;;3.55;1.80;;;18.50;68.20;;;;;;5054783;28;20029;-48
2022/07/07 01:15:05;;;;;;;6.55;1.77;;;18.50;68.50;;;;;;5056920;28;20369;-53
2022/07/07 01:17:31;;;;;;;3.67;1.55;;;18.50;68.40;;;;;;5039980;28;20090;-47
2022/07/07 01:19:58;;;;;;;4.60;1.20;;;18.60;68.50;;;;;;5056304;28;20476;-47
2022/07/07 01:22:31;;;;;;;2.50;2.08;;;18.60;68.80;;;;;;5056269;28;20055;-47
2022/07/07 01:24:58;;;;;;;2.22;1.33;;;18.70;68.60;;;;;;5055927;28;20025;-49
2022/07/07 01:27:24;;;;;;;1.55;1.20;;;18.70;68.80;;;;;;5056168;28;20079;-46
2022/07/07 01:29:54;;;;;;;6.15;2.55;;;18.70;68.90;;;;;;5055676;28;20051;-47
2022/07/07 01:32:24;;;;;;;1.80;1.50;;;18.70;69.10;;;;;;5055418;28;20021;-49
2022/07/07 01:34:51;;;;;;;2.42;1.45;;;18.60;69.40;;;;;;5056239;28;20079;-47
2022/07/07 01:37:18;;;;;;;2.85;1.58;;;18.60;69.50;;;;;;5055300;28;20036;-47
2022/07/07 01:39:44;;;;;;;2.33;1.70;;;18.70;69.60;;;;;;5055546;28;20051;-47
2022/07/07 01:42:10;;;;;;;5.63;1.42;;;18.70;69.90;;;;;;5055633;28;20388;-49
2022/07/07 01:44:38;;;;;;;5.30;1.88;;;18.80;70.00;;;;;;5055438;28;20031;-49
2022/07/07 01:47:05;;;;;;;2.38;1.88;;;18.70;70.40;;;;;;5055206;28;20041;-49
2022/07/07 01:49:32;;;;;;;2.38;2.17;;;18.70;70.30;;;;;;5053917;28;20123;-47
2022/07/07 01:51:59;;;;;;;6.18;1.98;;;18.70;70.50;;;;;;5055475;28;20104;-48
2022/07/07 01:54:25;;;;;;;5.80;2.67;;;18.80;70.40;;;;;;5055600;28;20075;-48
2022/07/07 01:56:51;;;;;;;3.70;2.75;;;18.80;70.70;;;;;;5055050;28;20053;-48
2022/07/07 01:59:17;;;;;;;3.42;2.33;;;18.80;70.40;;;;;;5053782;28;20021;-46
2022/07/07 02:01:43;;;;;;;6.38;2.10;;;18.70;70.50;;;;;;5054763;28;20061;-50
2022/07/07 02:04:09;;;;;;;3.40;2.08;;;18.80;70.50;;;;;;5054793;28;20075;-49
2022/07/07 02:06:35;;;;;;;7.35;3.88;;;18.80;70.60;;;;;;5054912;28;20112;-46
2022/07/07 02:09:01;;;;;;;5.80;3.33;;;18.80;70.90;;;;;;5055150;28;20040;-49
2022/07/07 02:11:27;;;;;;;5.22;2.72;;;18.80;71.60;;;;;;5055368;28;20457;-47
2022/07/07 02:13:53;;;;;;;4.95;2.65;;;18.70;71.80;;;;;;5054833;28;20028;-48
2022/07/07 02:16:21;;;;;;;7.78;3.80;;;18.70;72.00;;;;;;5054975;28;20025;-47
2022/07/07 02:18:49;;;;;;;6.63;3.15;;;18.80;71.90;;;;;;5054562;28;20036;-47
2022/07/07 02:21:16;;;;;;;10.43;3.63;;;18.70;72.10;;;;;;5054573;28;20098;-49
2022/07/07 02:23:46;;;;;;;4.88;3.50;;;18.80;72.10;;;;;;5054432;28;20033;-47
2022/07/07 02:26:12;;;;;;;9.35;4.15;;;18.80;72.10;;;;;;5053370;28;20029;-47
2022/07/07 02:28:39;;;;;;;8.52;3.97;;;18.70;72.30;;;;;;5054512;28;20032;-48
2022/07/07 02:31:04;;;;;;;9.82;5.13;;;18.80;72.40;;;;;;5053094;28;20033;-50
2022/07/07 02:33:30;;;;;;;5.50;3.53;;;18.70;72.50;;;;;;5054351;28;20180;-52
2022/07/07 02:35:57;;;;;;;8.90;4.15;;;18.70;72.80;;;;;;5054263;28;20029;-48
2022/07/07 02:38:23;;;;;;;6.15;3.78;;;18.80;73.10;;;;;;5054146;28;20027;-48
2022/07/07 02:40:50;;;;;;;6.20;4.32;;;18.70;73.20;;;;;;5054075;28;20017;-47
2022/07/07 02:43:15;;;;;;;6.55;4.60;;;18.70;73.10;;;;;;5054308;28;20033;-47
2022/07/07 02:45:42;;;;;;;9.30;4.55;;;18.50;73.50;;;;;;5054274;28;20459;-47
2022/07/07 02:48:09;;;;;;;6.32;4.25;;;18.70;73.10;;;;;;5054341;28;20024;-49
2022/07/07 02:50:38;;;;;;;9.57;4.97;;;18.70;73.10;;;;;;5053872;28;20036;-48
2022/07/07 02:53:04;;;;;;;8.55;4.63;;;18.60;73.60;;;;;;5053872;28;20017;-49
2022/07/07 02:55:30;;;;;;;7.40;5.20;;;18.70;73.40;;;;;;5054140;28;20025;-48
2022/07/07 02:57:57;;;;;;;8.70;5.78;;;18.60;73.70;;;;;;5053824;28;20481;-48
2022/07/07 03:00:23;;;;;;;9.95;5.10;;;18.50;74.40;;;;;;5053858;28;20029;-47
2022/07/07 03:02:49;;;;;;;8.18;4.97;;;18.40;75.90;;;;;;5053625;28;20020;-49
2022/07/07 03:05:15;;;;;;;9.50;5.93;;;18.30;77.00;;;;;;5053375;28;20515;-49
2022/07/07 03:07:41;;;;;;;9.35;6.65;;;18.20;77.80;;;;;;5054020;28;20042;-48
2022/07/07 03:10:08;;;;;;;7.65;5.53;;;18.10;78.30;;;;;;5053801;28;20100;-49
2022/07/07 03:12:34;;;;;;;12.75;5.45;;;17.80;79.70;;;;;;5052175;28;20029;-47
2022/07/07 03:15:00;;;;;;;10.63;6.47;;;17.80;80.50;;;;;;5052985;28;20420;-49
2022/07/07 20:15:03;;;;;;;4.53;1.45;;;16.60;61.90;;;;;;5071157;28;20883;-39
2022/07/07 20:17:28;;;;;;;7.35;1.60;;;16.60;61.40;;;;;;5070737;28;20025;-38
2022/07/07 20:19:54;;;;;;;6.03;1.30;;;16.80;60.70;;;;;;5070596;28;20029;-40
2022/07/07 20:22:20;;;;;;;8.05;2.45;;;16.90;60.50;;;;;;5070409;28;20031;-39
2022/07/07 20:24:47;;;;;;;4.60;1.48;;;17.00;59.60;;;;;;5070292;28;20024;-39
2022/07/07 20:27:13;;;;;;;7.20;1.65;;;17.00;58.30;;;;;;5070194;28;20025;-40
2022/07/07 20:29:39;;;;;;;8.32;1.25;;;17.10;58.20;;;;;;5070019;28;20530;-39
2022/07/07 20:32:05;;;;;;;12.80;2.65;;;17.20;57.80;;;;;;5070274;28;20021;-38
2022/07/07 20:34:31;;;;;;;7.63;1.27;;;17.10;58.10;;;;;;5070197;28;20406;-40
2022/07/07 20:36:57;;;;;;;9.23;2.53;;;17.10;58.20;;;;;;5070575;28;20027;-42
2022/07/07 20:39:22;;;;;;;4.85;1.52;;;17.10;58.40;;;;;;5069777;28;20031;-40
2022/07/07 20:41:48;;;;;;;9.98;1.83;;;17.00;58.70;;;;;;5070112;28;20031;-40
2022/07/07 20:44:14;;;;;;;5.53;1.70;;;17.10;58.80;;;;;;5069943;28;20025;-39
2022/07/07 20:46:39;;;;;;;8.45;1.85;;;17.10;58.90;;;;;;5070548;28;20068;-38
2022/07/07 20:49:05;;;;;;;6.32;1.80;;;17.20;59.00;;;;;;5069638;28;20035;-38
2022/07/07 20:51:31;;;;;;;6.03;1.48;;;17.20;59.00;;;;;;5070048;28;20032;-38
2022/07/07 20:53:56;;;;;;;4.15;1.25;;;17.20;59.20;;;;;;5069834;28;20025;-39
2022/07/07 20:56:22;;;;;;;4.53;1.55;;;17.20;59.50;;;;;;5069024;28;20075;-39
2022/07/07 20:58:47;;;;;;;7.93;2.38;;;17.20;59.90;;;;;;5070114;28;20075;-38
2022/07/07 21:01:14;;;;;;;6.55;2.00;;;17.10;60.30;;;;;;5069561;28;20423;-39
2022/07/07 21:03:40;;;;;;;8.32;1.65;;;16.90;61.30;;;;;;5069518;28;20021;-37
2022/07/07 21:06:09;;;;;;;6.95;1.13;;;16.90;61.70;;;;;;5069929;28;20059;-39
2022/07/07 21:08:35;;;;;;;10.45;2.03;;;16.80;62.30;;;;;;5069960;28;20448;-38
2022/07/07 21:11:01;;;;;;;6.60;1.48;;;16.90;62.50;;;;;;5069737;28;20031;-39
2022/07/07 21:13:26;;;;;;;8.80;1.60;;;17.00;62.30;;;;;;5069655;28;20485;-43
2022/07/07 21:15:52;;;;;;;6.97;2.15;;;17.10;62.00;;;;;;5069775;28;20017;-39
2022/07/07 21:18:18;;;;;;;9.98;1.90;;;17.00;62.30;;;;;;5069404;28;20044;-38
2022/07/07 21:20:43;;;;;;;7.03;2.92;;;16.90;63.00;;;;;;5069271;28;20032;-39
2022/07/07 21:23:09;;;;;;;13.80;2.03;;;16.90;63.40;;;;;;5067960;28;20527;-39
2022/07/07 21:25:35;;;;;;;8.48;1.85;;;16.90;63.60;;;;;;5060471;28;20116;-39
2022/07/07 21:28:03;;;;;;;4.43;1.90;;;16.80;64.10;;;;;;5054457;28;20075;-38
2022/07/07 21:30:29;;;;;;;5.40;1.60;;;16.80;64.70;;;;;;5056736;28;20025;-38
2022/07/07 21:32:54;;;;;;;4.25;1.55;;;16.80;65.10;;;;;;5054362;28;20083;-38
2022/07/07 21:35:20;;;;;;;4.03;1.10;;;16.60;65.80;;;;;;5055920;28;20021;-40
2022/07/07 21:37:46;;;;;;;4.40;1.90;;;16.60;66.20;;;;;;5054367;28;20021;-38
2022/07/07 21:40:12;;;;;;;8.57;2.88;;;16.80;66.10;;;;;;5055632;28;20440;-39
2022/07/07 21:42:37;;;;;;;4.82;1.60;;;16.80;66.30;;;;;;5054355;28;20108;-39
2022/07/07 21:45:05;;;;;;;9.65;1.52;;;16.70;66.70;;;;;;5055674;28;20078;-38
2022/07/07 21:47:31;;;;;;;5.05;1.60;;;16.50;67.10;;;;;;5055474;28;20143;-39
2022/07/07 21:49:57;;;;;;;15.23;2.03;;;16.60;67.20;;;;;;5055594;28;20151;-39
2022/07/07 21:52:24;;;;;;;4.45;1.55;;;16.60;67.20;;;;;;5055722;28;20055;-38
2022/07/07 21:54:50;;;;;;;9.02;1.65;;;16.60;67.00;;;;;;5054225;28;20393;-41
2022/07/07 21:57:15;;;;;;;9.50;1.70;;;16.60;67.00;;;;;;5055731;28;20040;-37
2022/07/07 21:59:41;;;;;;;7.60;1.42;;;16.70;67.10;;;;;;5054127;28;20021;-39
2022/07/07 22:02:07;;;;;;;9.40;2.40;;;16.60;67.00;;;;;;5054425;28;20029;-38
2022/07/07 22:07:17;;;;;;;8.73;2.47;;;16.50;67.50;;;;;;5056037;28;20051;-41
2022/07/07 22:09:45;;;;;;;7.50;2.13;;;16.50;67.60;;;;;;5055188;28;20032;-38
2022/07/07 22:12:14;;;;;;;4.80;2.28;;;16.40;67.50;;;;;;5053925;28;20032;-38
2022/07/07 22:14:41;;;;;;;8.13;1.80;;;16.40;67.50;;;;;;5055869;28;20064;-40
2022/07/07 22:17:08;;;;;;;8.73;1.65;;;16.30;68.00;;;;;;5055532;28;20100;-39
2022/07/07 22:19:35;;;;;;;16.45;2.03;;;16.40;68.00;;;;;;5054093;28;20433;-40
2022/07/07 22:22:00;;;;;;;8.07;1.95;;;16.30;67.90;;;;;;5055252;28;20412;-38
2022/07/07 22:24:29;;;;;;;7.40;2.00;;;16.40;67.60;;;;;;5053586;28;20025;-38
2022/07/07 22:26:55;;;;;;;8.45;1.80;;;16.40;67.60;;;;;;5055254;28;20491;-39
2022/07/07 22:29:20;;;;;;;4.22;1.33;;;16.40;67.00;;;;;;5053994;28;20092;-39
2022/07/07 22:31:46;;;;;;;5.88;1.27;;;16.40;66.40;;;;;;5054299;28;20115;-40
2022/07/07 22:34:12;;;;;;;4.93;1.88;;;16.40;66.50;;;;;;5053814;28;20430;-39
2022/07/07 22:36:38;;;;;;;5.93;1.95;;;16.40;66.00;;;;;;5054726;28;20021;-39
2022/07/07 22:39:04;;;;;;;6.50;1.98;;;16.40;65.80;;;;;;5053402;28;20028;-39
2022/07/07 22:41:30;;;;;;;5.68;1.60;;;16.30;65.50;;;;;;5054842;28;20555;-39
2022/07/07 22:43:56;;;;;;;5.15;1.50;;;16.30;65.50;;;;;;5054549;28;20063;-38
2022/07/07 22:46:22;;;;;;;8.82;1.42;;;16.30;65.70;;;;;;5053507;28;20354;-37
2022/07/07 22:48:48;;;;;;;10.88;1.90;;;16.30;65.20;;;;;;5053558;28;20025;-39
2022/07/07 22:51:13;;;;;;;7.03;1.33;;;16.20;65.20;;;;;;5055429;28;20488;-39
2022/07/07 22:53:39;;;;;;;6.85;1.48;;;16.30;64.90;;;;;;5055170;28;20484;-39
2022/07/07 22:56:07;;;;;;;9.13;1.38;;;16.30;63.20;;;;;;5054247;28;20029;-39
2022/07/07 22:58:33;;;;;;;8.82;2.45;;;16.20;63.20;;;;;;5053639;28;20431;-39
2022/07/07 23:01:00;;;;;;;5.78;1.10;;;16.20;62.20;;;;;;5054185;28;20075;-40
2022/07/07 23:03:31;;;;;;;2.33;1.00;;;16.20;62.50;;;;;;5055267;28;20017;-38
2022/07/07 23:05:57;;;;;;;4.82;1.67;;;16.30;61.90;;;;;;5054670;28;20036;-38
2022/07/07 23:08:23;;;;;;;4.63;1.10;;;16.30;62.20;;;;;;5053253;28;20025;-40
2022/07/07 23:10:50;;;;;;;8.25;1.42;;;16.30;61.70;;;;;;5053869;28;20470;-39
2022/07/07 23:13:16;;;;;;;5.47;1.23;;;16.30;61.60;;;;;;5054306;28;20090;-38
2022/07/07 23:15:42;;;;;;;7.30;1.13;;;16.20;61.90;;;;;;5054489;28;20425;-39
2022/07/07 23:18:08;;;;;;;3.45;1.70;;;16.30;60.90;;;;;;5053224;28;20107;-39
2022/07/07 23:20:34;;;;;;;4.38;1.27;;;16.20;60.70;;;;;;5054831;28;20032;-39
2022/07/07 23:23:01;;;;;;;4.25;0.95;;;16.20;60.70;;;;;;5053354;28;20029;-38
2022/07/07 23:25:27;;;;;;;4.45;1.70;;;16.10;60.50;;;;;;5054899;28;20033;-38
2022/07/07 23:27:52;;;;;;;1.67;0.60;;;16.20;60.80;;;;;;5055429;28;20082;-38
2022/07/07 23:30:18;;;;;;;3.17;1.73;;;16.20;61.30;;;;;;5054672;28;20465;-38
2022/07/07 23:32:44;;;;;;;7.25;1.48;;;16.20;61.50;;;;;;5054058;28;20028;-38
2022/07/07 23:35:09;;;;;;;5.60;1.58;;;16.20;61.90;;;;;;5054023;28;20021;-40
2022/07/07 23:37:35;;;;;;;2.80;1.02;;;16.30;62.60;;;;;;5052362;28;20044;-39
2022/07/07 23:40:02;;;;;;;6.10;1.80;;;16.30;62.90;;;;;;5053419;28;20489;-38
2022/07/07 23:42:27;;;;;;;9.68;1.95;;;16.30;63.20;;;;;;5053341;28;20033;-38
2022/07/07 23:44:53;;;;;;;6.40;1.50;;;16.20;63.40;;;;;;5054100;28;20029;-38
2022/07/07 23:47:18;;;;;;;3.67;1.40;;;16.20;64.10;;;;;;5052141;28;20025;-38
2022/07/07 23:49:44;;;;;;;10.27;1.67;;;16.20;64.20;;;;;;5051975;28;20040;-38
2022/07/07 23:52:10;;;;;;;7.72;1.60;;;16.20;64.70;;;;;;5053189;28;20548;-38
2022/07/07 23:54:35;;;;;;;10.75;1.70;;;16.10;65.00;;;;;;5054334;28;20035;-39
2022/07/07 23:57:01;;;;;;;4.47;1.30;;;16.10;65.20;;;;;;5054562;28;20385;-39
2022/07/07 23:59:27;;;;;;;7.85;1.67;;;16.10;65.40;;;;;;5055412;28;20044;-37
